This is the latest recevied weather packets stored in our database for station/object AC5JC-1. If no packets are shown the sender has not sent any weather packets the latest 10 day(s).
| Time | Temp. | Humidity | Pressure | Rain* | Wind** | Luminosity | Snow |
|---|---|---|---|---|---|---|---|
| 1777737035 | 20° C | 65% | 1022.8 hPa | 0 mm | - | 602 W/m² | - |
| 1777735834 | 18.89° C | 73% | 1022.7 hPa | 0 mm | - | 581 W/m² | - |
| 1777734935 | 18.33° C | 74% | 1022.7 hPa | 0 mm | - | 543 W/m² | - |
| 1777731634 | 16.11° C | 84% | 1022.7 hPa | 0 mm | - | 290 W/m² | - |
| 1777729884 | 13.89° C | 89% | 1022.5 hPa | 0 mm | - | 165 W/m² | - |
| 1777729224 | 13.33° C | 91% | 1022.3 hPa | 0 mm | - | 137 W/m² | - |
| 1777728355 | 12.22° C | 94% | 1022.2 hPa | 0 mm | - | 96 W/m² | - |
| 1777725634 | 10° C | 99% | 1021.9 hPa | 0 mm | - | 29 W/m² | - |
| 1777724135 | 10° C | 99% | 1021.3 hPa | 0 mm | - | 18 W/m² | - |
| 1777722344 | 10° C | 99% | 1020.8 hPa | 0 mm | - | 2 W/m² | - |
| 1777720872 | 10° C | 99% | 1020.6 hPa | 0 mm | - | 0 W/m² | - |
| 1777719934 | 10° C | 99% | 1020.5 hPa | 0 mm | - | 0 W/m² | - |
| 1777719635 | 10° C | 99% | 1020.3 hPa | 0 mm | - | 0 W/m² | - |
| 1777717534 | 9.44° C | 98% | 1020.2 hPa | 0 mm | - | 0 W/m² | - |
| 1777716328 | 10° C | 97% | 1020.2 hPa | 0 mm | - | 0 W/m² | - |
| 1777715434 | 10.56° C | 97% | 1020 hPa | 0 mm | - | 0 W/m² | - |
| 1777711834 | 10.56° C | 97% | 1019.9 hPa | 0 mm | - | 0 W/m² | - |
| 1777710954 | 10.56° C | 97% | 1019.8 hPa | 0 mm | - | 0 W/m² | - |
| 1777710655 | 10.56° C | 97% | 1020 hPa | 0 mm | - | 0 W/m² | - |
| 1777708234 | 10.56° C | 96% | 1020 hPa | 0 mm | - | 0 W/m² | - |
| 1777707975 | 10.56° C | 95% | 1019.9 hPa | 0 mm | - | 0 W/m² | - |
| 1777707334 | 10.56° C | 95% | 1019.9 hPa | 0 mm | - | 0 W/m² | - |
| 1777705534 | 10.56° C | 95% | 1020.1 hPa | 0 mm | - | 0 W/m² | - |
| 1777705234 | 10.56° C | 95% | 1020.1 hPa | 0 mm | - | 0 W/m² | - |
| 1777704345 | 10.56° C | 95% | 1020.1 hPa | 0 mm | - | 0 W/m² | - |
* Rain latest hour (hover to see other rain measurements)
** Current wind speed in m/s (hover to see current wind gust speed)